Time;durP1;ratioP1;P1;durP2;ratioP2;P2;SDS_P1;SDS_P2;PMS_P1;PMS_P2;Temp;Humidity;BMP_temperature;BMP_pressure;BME280_temperature;BME280_humidity;BME280_pressure;Samples;Min_cycle;Max_cycle;Signal;HPM_P1;HPM_P2
2021/07/07 00:00:38;;;;;;;0.40;0.40;;;19.40;99.90;;;;;;4915583;29;20356;-77
2021/07/07 00:03:06;;;;;;;0.30;0.30;;;19.10;99.90;;;;;;4915640;29;20257;-77
2021/07/07 00:05:34;;;;;;;0.30;0.30;;;19.10;99.90;;;;;;4915952;29;20230;-76
2021/07/07 00:08:03;;;;;;;0.20;0.20;;;19.00;99.90;;;;;;4915825;29;20202;-76
2021/07/07 00:10:34;;;;;;;0.30;0.30;;;19.00;99.90;;;;;;4915254;29;20238;-76
2021/07/07 00:13:03;;;;;;;0.30;0.30;;;19.10;99.90;;;;;;4915719;29;20207;-76
2021/07/07 00:15:33;;;;;;;0.30;0.30;;;19.10;99.90;;;;;;4915106;29;20250;-76
2021/07/07 00:18:02;;;;;;;0.40;0.40;;;19.10;99.90;;;;;;4915266;29;20672;-75
2021/07/07 00:20:35;;;;;;;0.40;0.40;;;19.10;99.90;;;;;;4915410;29;20563;-76
2021/07/07 00:23:04;;;;;;;0.30;0.30;;;19.10;99.90;;;;;;4915354;29;20207;-76
2021/07/07 00:25:32;;;;;;;0.30;0.30;;;19.20;99.90;;;;;;4914952;29;20247;-76
2021/07/07 00:28:00;;;;;;;0.20;0.20;;;19.20;99.90;;;;;;4915197;29;20206;-76
2021/07/07 00:30:29;;;;;;;0.30;0.30;;;19.30;99.90;;;;;;4915019;29;20297;-76
2021/07/07 00:32:57;;;;;;;0.20;0.20;;;19.40;99.90;;;;;;4914913;29;20207;-76
2021/07/07 00:35:26;;;;;;;0.30;0.30;;;19.50;99.90;;;;;;4915011;29;20210;-76
2021/07/07 00:37:54;;;;;;;0.30;0.30;;;19.50;99.90;;;;;;4915222;29;20261;-76
2021/07/07 00:40:23;;;;;;;0.20;0.20;;;19.40;99.90;;;;;;4915046;29;20282;-76
2021/07/07 00:42:51;;;;;;;0.25;0.25;;;19.30;99.90;;;;;;4914982;29;20210;-76
2021/07/07 00:45:19;;;;;;;0.30;0.30;;;19.30;99.90;;;;;;4914358;29;20636;-76
2021/07/07 00:47:48;;;;;;;0.40;0.40;;;19.30;99.90;;;;;;4915492;29;20285;-76
2021/07/07 00:50:17;;;;;;;0.30;0.30;;;19.30;99.90;;;;;;4915029;29;20253;-77
2021/07/07 00:52:45;;;;;;;0.30;0.30;;;19.30;99.90;;;;;;4915385;29;20210;-77
2021/07/07 00:55:16;;;;;;;0.30;0.30;;;19.30;99.90;;;;;;4914664;29;20257;-76
2021/07/07 00:57:46;;;;;;;0.30;0.30;;;19.10;99.90;;;;;;4915031;29;20262;-77
2021/07/07 01:00:17;;;;;;;0.40;0.40;;;19.20;99.90;;;;;;4914492;29;20226;-77
2021/07/07 01:02:47;;;;;;;0.40;0.40;;;19.30;99.90;;;;;;4914982;29;20214;-76
2021/07/07 01:05:16;;;;;;;0.30;0.30;;;19.20;99.90;;;;;;4917659;29;20229;-76
2021/07/07 01:07:45;;;;;;;0.40;0.40;;;19.20;99.90;;;;;;4918400;29;20215;-77
2021/07/07 01:10:15;;;;;;;0.30;0.30;;;19.10;99.90;;;;;;4918750;29;20321;-78
2021/07/07 01:12:43;;;;;;;0.40;0.40;;;18.90;99.90;;;;;;4918500;29;20206;-78
2021/07/07 01:15:15;;;;;;;0.40;0.40;;;18.80;99.90;;;;;;4918249;29;20623;-77
2021/07/07 01:17:43;;;;;;;0.30;0.30;;;18.70;99.90;;;;;;4918273;29;20270;-77
2021/07/07 01:20:15;;;;;;;0.40;0.40;;;18.60;99.90;;;;;;4918682;29;20289;-77
2021/07/07 01:22:45;;;;;;;0.40;0.40;;;18.50;99.90;;;;;;4918433;29;20719;-77
2021/07/07 01:25:15;;;;;;;0.30;0.30;;;18.50;99.90;;;;;;4918520;29;20226;-75
2021/07/07 01:27:45;;;;;;;0.40;0.40;;;18.40;99.90;;;;;;4918764;29;20203;-76
2021/07/07 01:30:16;;;;;;;0.30;0.30;;;18.10;99.90;;;;;;4919088;29;20258;-78
2021/07/07 01:32:45;;;;;;;0.40;0.40;;;17.80;99.90;;;;;;4918583;29;20634;-77
2021/07/07 01:35:14;;;;;;;0.30;0.30;;;17.70;99.90;;;;;;4918448;29;20198;-77
2021/07/07 01:37:45;;;;;;;0.40;0.40;;;17.50;99.90;;;;;;4918690;29;20202;-76
2021/07/07 01:40:16;;;;;;;0.40;0.40;;;17.40;99.90;;;;;;4918183;29;20241;-77
2021/07/07 01:42:43;;;;;;;0.40;0.40;;;17.30;99.90;;;;;;4918433;29;20207;-77
2021/07/07 01:45:12;;;;;;;0.32;0.32;;;17.30;99.90;;;;;;4918459;29;20699;-77
2021/07/07 01:47:41;;;;;;;0.47;0.47;;;17.20;99.90;;;;;;4917359;29;20258;-77
2021/07/07 01:50:12;;;;;;;0.50;0.50;;;17.10;99.90;;;;;;4918098;29;20270;-78
2021/07/07 01:52:41;;;;;;;0.32;0.32;;;17.00;99.90;;;;;;4918710;29;20213;-77
2021/07/07 01:55:15;;;;;;;0.40;0.40;;;17.00;99.90;;;;;;4918422;29;20237;-77
2021/07/07 01:57:44;;;;;;;0.40;0.40;;;17.00;99.90;;;;;;4918602;29;20210;-77
2021/07/07 02:00:16;;;;;;;0.40;0.40;;;17.10;99.90;;;;;;4918651;29;20231;-77
2021/07/07 02:02:45;;;;;;;0.40;0.40;;;17.20;99.90;;;;;;4918595;29;20261;-78
2021/07/07 02:05:13;;;;;;;0.30;0.30;;;17.30;99.90;;;;;;4917820;29;20223;-77
2021/07/07 02:07:42;;;;;;;0.30;0.30;;;17.30;99.90;;;;;;4918300;29;20688;-77
2021/07/07 02:10:14;;;;;;;0.30;0.30;;;17.40;99.90;;;;;;4918013;29;20248;-76
2021/07/07 02:12:42;;;;;;;0.40;0.40;;;17.40;99.90;;;;;;4918325;29;20293;-77
2021/07/07 02:15:13;;;;;;;0.30;0.30;;;17.40;99.90;;;;;;4917614;29;20207;-77
2021/07/07 02:17:44;;;;;;;0.30;0.30;;;17.40;99.90;;;;;;4918462;29;20242;-77
2021/07/07 02:20:14;;;;;;;0.40;0.40;;;17.50;99.90;;;;;;4918444;29;20227;-77
2021/07/07 02:22:43;;;;;;;0.30;0.30;;;17.60;99.90;;;;;;4918241;29;20214;-77
2021/07/07 02:25:15;;;;;;;0.30;0.30;;;17.70;99.90;;;;;;4918036;29;20230;-77
2021/07/07 02:27:43;;;;;;;0.30;0.30;;;17.70;99.90;;;;;;4918789;29;20207;-77
2021/07/07 02:30:15;;;;;;;0.30;0.30;;;17.70;99.90;;;;;;4917724;29;20278;-77
2021/07/07 02:32:43;;;;;;;0.30;0.30;;;17.80;99.90;;;;;;4917572;29;20207;-77
2021/07/07 02:35:14;;;;;;;0.40;0.40;;;17.80;99.90;;;;;;4917531;29;20202;-77
2021/07/07 02:37:42;;;;;;;0.30;0.30;;;17.60;99.90;;;;;;4917445;29;20258;-77
2021/07/07 02:40:14;;;;;;;0.30;0.30;;;17.70;99.90;;;;;;4917358;29;20313;-77
2021/07/07 02:42:42;;;;;;;0.30;0.30;;;17.80;99.90;;;;;;4917670;29;20232;-77
2021/07/07 02:45:11;;;;;;;0.40;0.40;;;17.80;99.90;;;;;;4917233;29;20211;-77
2021/07/07 02:47:40;;;;;;;0.30;0.30;;;17.80;99.90;;;;;;4917267;29;20207;-77
2021/07/07 02:50:10;;;;;;;0.40;0.40;;;17.80;99.90;;;;;;4917489;29;20234;-77
2021/07/07 02:52:39;;;;;;;0.20;0.20;;;17.90;99.90;;;;;;4917094;29;20218;-77
2021/07/07 02:55:08;;;;;;;0.40;0.40;;;18.00;99.90;;;;;;4917005;29;20210;-77
2021/07/07 03:00:24;;;;;;;0.40;0.40;;;18.00;99.90;;;;;;4916912;29;20335;-77
2021/07/07 03:02:52;;;;;;;0.30;0.30;;;18.10;99.90;;;;;;4917020;29;20262;-77
2021/07/07 03:05:20;;;;;;;0.30;0.30;;;18.10;99.90;;;;;;4916588;29;20202;-77
2021/07/07 03:07:48;;;;;;;0.30;0.30;;;18.10;99.90;;;;;;4916816;29;20631;-77
2021/07/07 03:10:17;;;;;;;0.30;0.30;;;18.00;99.90;;;;;;4916698;29;20272;-77
2021/07/07 03:12:46;;;;;;;0.40;0.40;;;17.90;99.90;;;;;;4916833;29;20207;-77
2021/07/07 03:15:14;;;;;;;0.30;0.30;;;;;;;;;;4916474;29;20383;-77
2021/07/07 03:17:42;;;;;;;0.40;0.40;;;17.80;99.90;;;;;;4916787;29;20275;-77
2021/07/07 03:20:11;;;;;;;0.30;0.30;;;17.90;99.90;;;;;;4916894;29;20329;-77
2021/07/07 03:22:39;;;;;;;0.30;0.30;;;18.00;99.90;;;;;;4917296;29;20291;-76
2021/07/07 03:25:09;;;;;;;0.30;0.30;;;18.10;99.90;;;;;;4916760;29;20211;-75
2021/07/07 03:27:37;;;;;;;0.40;0.40;;;17.90;99.90;;;;;;4916335;29;20231;-78
2021/07/07 03:30:08;;;;;;;0.30;0.30;;;17.80;99.90;;;;;;4916350;29;20269;-78
2021/07/07 03:32:36;;;;;;;0.30;0.30;;;17.80;99.90;;;;;;4916514;29;20259;-76
2021/07/07 03:35:05;;;;;;;0.30;0.30;;;17.60;99.90;;;;;;4916439;29;20206;-76
2021/07/07 03:37:33;;;;;;;0.30;0.30;;;17.60;99.90;;;;;;4916185;29;20560;-76
2021/07/07 03:40:01;;;;;;;0.30;0.30;;;17.60;99.90;;;;;;4916483;29;20258;-76
2021/07/07 03:42:29;;;;;;;0.40;0.40;;;17.50;99.90;;;;;;4916255;29;20214;-77
2021/07/07 03:44:58;;;;;;;0.30;0.30;;;17.50;99.90;;;;;;4916180;29;20675;-76
2021/07/07 03:47:29;;;;;;;0.40;0.40;;;17.50;99.90;;;;;;4916112;29;20231;-76
2021/07/07 03:49:57;;;;;;;0.30;0.30;;;17.50;99.90;;;;;;4916214;29;20258;-76
2021/07/07 03:52:25;;;;;;;0.30;0.30;;;17.40;99.90;;;;;;4916130;29;20259;-76
2021/07/07 03:54:52;;;;;;;0.30;0.30;;;17.40;99.90;;;;;;4916009;29;20206;-77
2021/07/07 03:57:20;;;;;;;0.30;0.30;;;17.30;99.90;;;;;;4916003;29;20203;-77
2021/07/07 03:59:48;;;;;;;0.30;0.30;;;17.40;99.90;;;;;;4915906;29;20231;-77
2021/07/07 04:02:20;;;;;;;0.30;0.30;;;17.40;99.90;;;;;;4915971;29;20210;-77
2021/07/07 04:04:50;;;;;;;0.40;0.40;;;17.40;99.90;;;;;;4909956;29;20284;-77
2021/07/07 04:07:17;;;;;;;0.40;0.40;;;17.30;99.90;;;;;;4935025;29;20277;-77
2021/07/07 04:09:45;;;;;;;0.30;0.30;;;17.50;99.90;;;;;;4948627;23;20238;-77
2021/07/07 04:12:13;;;;;;;0.40;0.40;;;17.40;99.90;;;;;;4898986;29;20688;-78
2021/07/07 04:14:41;;;;;;;0.30;0.30;;;17.40;99.90;;;;;;4899756;29;20263;-78
2021/07/07 04:17:09;;;;;;;0.40;0.40;;;17.50;99.90;;;;;;4898917;29;20203;-77
2021/07/07 04:19:37;;;;;;;0.32;0.32;;;17.20;99.90;;;;;;4898555;29;20672;-79
2021/07/07 04:22:06;;;;;;;0.40;0.40;;;17.30;99.90;;;;;;4899376;29;20204;-78
2021/07/07 04:24:34;;;;;;;0.40;0.40;;;17.20;99.90;;;;;;4899398;29;20732;-78
2021/07/07 04:27:03;;;;;;;0.40;0.40;;;17.10;99.90;;;;;;4899008;29;20688;-79
2021/07/07 04:29:31;;;;;;;0.40;0.40;;;17.30;99.90;;;;;;4899309;29;20267;-78
2021/07/07 04:31:59;;;;;;;0.40;0.40;;;17.00;99.90;;;;;;4900241;29;20211;-79
2021/07/07 04:34:27;;;;;;;0.40;0.40;;;17.00;99.90;;;;;;4900139;29;20208;-79
2021/07/07 04:36:56;;;;;;;0.40;0.40;;;16.90;99.90;;;;;;4899787;29;20207;-79
2021/07/07 04:39:25;;;;;;;0.40;0.40;;;16.90;99.90;;;;;;4904190;29;20291;-79
2021/07/07 04:41:53;;;;;;;0.40;0.40;;;16.90;99.90;;;;;;4905793;29;20255;-79
2021/07/07 04:44:21;;;;;;;0.40;0.40;;;16.90;99.90;;;;;;4909955;29;20279;-80
2021/07/07 04:46:48;;;;;;;0.40;0.40;;;16.90;99.90;;;;;;4906543;29;20692;-79
2021/07/07 04:49:16;;;;;;;0.40;0.40;;;16.80;99.90;;;;;;4904827;29;20271;-79
2021/07/07 04:51:44;;;;;;;0.50;0.50;;;16.70;99.90;;;;;;4907395;29;20247;-80
2021/07/07 04:54:12;;;;;;;0.43;0.43;;;16.60;99.90;;;;;;4906793;29;20243;-80
2021/07/07 04:56:44;;;;;;;0.50;0.50;;;16.80;99.90;;;;;;4904031;29;20649;-79
2021/07/07 04:59:12;;;;;;;0.30;0.30;;;16.60;99.90;;;;;;4903731;29;20207;-79
2021/07/07 05:01:40;;;;;;;0.45;0.45;;;16.50;99.90;;;;;;4904019;29;20286;-79
2021/07/07 05:04:08;;;;;;;0.40;0.40;;;16.30;99.90;;;;;;4903442;29;20203;-78
2021/07/07 05:06:36;;;;;;;0.40;0.40;;;16.30;99.90;;;;;;4895040;29;20223;-78
2021/07/07 05:09:04;;;;;;;0.50;0.50;;;16.30;99.90;;;;;;4886184;29;20212;-78
2021/07/07 05:11:32;;;;;;;0.40;0.40;;;16.30;99.90;;;;;;4886091;29;20232;-78
2021/07/07 05:14:01;;;;;;;0.30;0.30;;;16.30;99.90;;;;;;4886212;29;20256;-80
2021/07/07 05:16:29;;;;;;;0.40;0.40;;;16.50;99.90;;;;;;4907868;29;20680;-80
2021/07/07 05:18:57;;;;;;;0.40;0.40;;;16.50;99.90;;;;;;4921287;29;20266;-78
2021/07/07 05:21:25;;;;;;;0.40;0.40;;;16.60;99.90;;;;;;4922843;29;20226;-78
2021/07/07 05:23:53;;;;;;;0.30;0.30;;;16.60;99.90;;;;;;4923894;29;20739;-80
2021/07/07 05:26:21;;;;;;;0.40;0.40;;;16.50;99.90;;;;;;4928877;29;20214;-79
2021/07/07 05:28:49;;;;;;;0.40;0.40;;;16.50;99.90;;;;;;4929209;29;20266;-79
2021/07/07 05:31:18;;;;;;;0.30;0.30;;;16.50;99.90;;;;;;4926905;29;20337;-77
2021/07/07 05:33:46;;;;;;;0.40;0.40;;;16.50;99.90;;;;;;4926032;29;20218;-79
2021/07/07 05:36:14;;;;;;;0.40;0.40;;;16.60;99.90;;;;;;4923754;29;20242;-76
2021/07/07 05:38:42;;;;;;;0.40;0.40;;;16.70;99.90;;;;;;4923225;29;20202;-81
2021/07/07 05:41:10;;;;;;;0.40;0.40;;;16.80;99.90;;;;;;4923558;29;20238;-78
2021/07/07 05:43:37;;;;;;;0.43;0.43;;;17.00;99.90;;;;;;4922586;29;20211;-79
2021/07/07 05:46:05;;;;;;;0.40;0.40;;;16.80;99.90;;;;;;4922323;29;20668;-79
2021/07/07 05:48:35;;;;;;;0.35;0.35;;;16.70;99.90;;;;;;4922764;29;20223;-78
2021/07/07 05:51:04;;;;;;;0.40;0.40;;;16.60;99.90;;;;;;4918833;29;20256;-79
2021/07/07 05:53:32;;;;;;;0.30;0.30;;;16.60;99.90;;;;;;4920731;29;20226;-79
2021/07/07 05:56:00;;;;;;;0.30;0.30;;;16.50;99.90;;;;;;4921113;29;20630;-79
2021/07/07 05:58:28;;;;;;;0.40;0.40;;;16.50;99.90;;;;;;4920038;29;20202;-79
2021/07/07 06:00:55;;;;;;;0.40;0.40;;;16.50;99.90;;;;;;4920673;29;20223;-79
2021/07/07 06:03:23;;;;;;;0.30;0.30;;;16.50;99.90;;;;;;4920892;29;20255;-79
2021/07/07 06:05:53;;;;;;;0.30;0.30;;;16.60;99.90;;;;;;4921270;29;20206;-79
2021/07/07 06:08:21;;;;;;;0.30;0.30;;;16.70;99.90;;;;;;4920464;29;20226;-79
2021/07/07 06:10:49;;;;;;;0.50;0.50;;;16.80;99.90;;;;;;4919780;29;20239;-79
2021/07/07 06:13:17;;;;;;;0.40;0.40;;;16.90;99.90;;;;;;4919229;29;20664;-79
2021/07/07 06:15:45;;;;;;;0.40;0.40;;;16.90;99.90;;;;;;4918983;29;20241;-79
2021/07/07 06:18:13;;;;;;;0.40;0.40;;;16.90;99.90;;;;;;4919334;29;20336;-79
2021/07/07 06:20:42;;;;;;;0.47;0.47;;;16.80;99.90;;;;;;4919503;29;20591;-79
2021/07/07 06:23:11;;;;;;;0.40;0.40;;;16.90;99.90;;;;;;4919357;29;20239;-80
2021/07/07 06:25:41;;;;;;;0.40;0.40;;;16.90;99.90;;;;;;4919249;29;20211;-80
2021/07/07 06:28:09;;;;;;;0.40;0.40;;;16.90;99.90;;;;;;4919401;29;20234;-79
2021/07/07 06:30:36;;;;;;;0.40;0.40;;;17.00;99.90;;;;;;4918976;29;20262;-80
2021/07/07 06:33:05;;;;;;;0.40;0.40;;;17.00;99.90;;;;;;4918917;29;20668;-80
2021/07/07 06:35:35;;;;;;;0.47;0.47;;;17.00;99.90;;;;;;4918645;29;20223;-80
2021/07/07 06:38:04;;;;;;;0.40;0.40;;;17.10;99.90;;;;;;4918572;29;20191;-80
2021/07/07 06:40:34;;;;;;;0.40;0.40;;;17.10;99.90;;;;;;4919116;29;20234;-80
2021/07/07 06:43:02;;;;;;;0.30;0.30;;;17.20;99.90;;;;;;4918851;29;20236;-80
2021/07/07 06:45:33;;;;;;;0.30;0.30;;;17.20;99.90;;;;;;4918910;29;20548;-80
2021/07/07 06:48:01;;;;;;;0.30;0.30;;;17.10;99.90;;;;;;4919008;29;20222;-80
2021/07/07 06:50:29;;;;;;;0.40;0.40;;;17.20;99.90;;;;;;4919450;29;20230;-80
2021/07/07 06:52:57;;;;;;;0.40;0.40;;;17.20;99.90;;;;;;4919011;29;20219;-80
2021/07/07 06:55:24;;;;;;;0.30;0.30;;;17.20;99.90;;;;;;4919400;29;20795;-80
2021/07/07 06:57:54;;;;;;;0.30;0.30;;;17.20;99.90;;;;;;4919447;29;20207;-80
2021/07/07 07:00:23;;;;;;;0.40;0.40;;;17.20;99.90;;;;;;4919444;29;20227;-80
2021/07/07 07:02:51;;;;;;;0.40;0.40;;;17.30;99.90;;;;;;4918453;29;20214;-80
2021/07/07 07:05:21;;;;;;;0.40;0.40;;;17.40;99.90;;;;;;4918560;29;20680;-80
2021/07/07 07:07:49;;;;;;;0.40;0.40;;;17.50;99.90;;;;;;4918874;29;20238;-80
2021/07/07 07:10:17;;;;;;;0.30;0.30;;;17.70;99.90;;;;;;4918458;29;20297;-80
2021/07/07 07:12:45;;;;;;;0.40;0.40;;;17.70;99.90;;;;;;4918397;29;20233;-80
2021/07/07 07:15:16;;;;;;;0.40;0.40;;;17.80;99.90;;;;;;4918255;29;20224;-80
2021/07/07 07:17:45;;;;;;;0.30;0.30;;;17.80;99.90;;;;;;4918663;29;20187;-80
2021/07/07 07:20:15;;;;;;;0.30;0.30;;;17.90;99.90;;;;;;4918148;29;20241;-80
2021/07/07 07:22:44;;;;;;;0.30;0.30;;;17.90;99.90;;;;;;4918819;29;20747;-80
2021/07/07 07:25:13;;;;;;;0.30;0.30;;;18.00;99.90;;;;;;4919101;29;20237;-80
2021/07/07 07:27:41;;;;;;;0.30;0.30;;;17.90;99.90;;;;;;4920447;29;20211;-80
2021/07/07 07:30:11;;;;;;;0.30;0.30;;;17.90;99.90;;;;;;4921393;29;20255;-79
2021/07/07 07:32:45;;;;;;;0.30;0.30;;;17.90;99.90;;;;;;4919716;29;20250;-80
2021/07/07 07:35:14;;;;;;;0.30;0.30;;;18.00;99.90;;;;;;4919542;29;20207;-80
2021/07/07 07:37:47;;;;;;;0.30;0.30;;;17.80;99.90;;;;;;4919070;29;20265;-80
2021/07/07 07:40:21;;;;;;;0.30;0.30;;;17.90;99.90;;;;;;4919163;29;20365;-80
2021/07/07 07:42:49;;;;;;;0.40;0.40;;;18.00;99.90;;;;;;4918767;29;20207;-79
2021/07/07 07:45:18;;;;;;;0.30;0.30;;;18.10;99.90;;;;;;4918800;29;20664;-80
2021/07/07 07:47:47;;;;;;;0.30;0.30;;;18.10;99.90;;;;;;4918557;29;20226;-80
2021/07/07 07:50:17;;;;;;;0.40;0.40;;;18.20;99.90;;;;;;4918446;29;20231;-80
2021/07/07 07:52:46;;;;;;;0.30;0.30;;;18.30;99.90;;;;;;4919246;29;20230;-80
2021/07/07 07:55:15;;;;;;;0.40;0.40;;;18.30;99.90;;;;;;4919155;29;20746;-80
2021/07/07 07:57:43;;;;;;;0.30;0.30;;;18.40;99.90;;;;;;4918862;29;20207;-79
2021/07/07 08:00:14;;;;;;;0.40;0.40;;;18.30;99.90;;;;;;4920299;29;20261;-80
2021/07/07 08:02:43;;;;;;;0.30;0.30;;;18.40;99.90;;;;;;4920301;29;20679;-80
2021/07/07 08:05:14;;;;;;;0.40;0.40;;;18.40;99.90;;;;;;4920486;29;20234;-80
2021/07/07 08:07:45;;;;;;;0.30;0.30;;;18.30;99.90;;;;;;4920399;29;20206;-80
2021/07/07 08:10:18;;;;;;;0.30;0.30;;;18.30;99.90;;;;;;4920852;29;20234;-80
2021/07/07 08:12:48;;;;;;;0.40;0.40;;;18.30;99.90;;;;;;4920435;29;20211;-80
2021/07/07 08:15:17;;;;;;;0.40;0.40;;;18.40;99.90;;;;;;4920569;29;20206;-80
2021/07/07 08:17:46;;;;;;;0.30;0.30;;;18.40;99.90;;;;;;4921876;29;20206;-80
2021/07/07 08:20:17;;;;;;;0.30;0.30;;;18.50;99.90;;;;;;4921983;29;20305;-80
2021/07/07 08:22:45;;;;;;;0.40;0.40;;;18.50;99.90;;;;;;4924162;29;20214;-80
2021/07/07 08:25:15;;;;;;;0.40;0.40;;;18.50;99.90;;;;;;4925706;29;20207;-80
2021/07/07 08:27:43;;;;;;;0.30;0.30;;;18.40;99.90;;;;;;4926736;29;20202;-79
2021/07/07 08:30:13;;;;;;;0.47;0.47;;;18.30;99.90;;;;;;4919796;29;20226;-80
2021/07/07 08:32:41;;;;;;;0.40;0.40;;;18.30;99.90;;;;;;4917380;29;20207;-80
2021/07/07 08:35:10;;;;;;;0.40;0.40;;;18.30;99.90;;;;;;4918898;29;20585;-80
2021/07/07 08:37:41;;;;;;;0.30;0.30;;;18.40;99.90;;;;;;4918236;29;20214;-80
2021/07/07 08:40:10;;;;;;;0.30;0.30;;;18.50;99.90;;;;;;4918059;29;20320;-80
2021/07/07 08:42:41;;;;;;;0.30;0.30;;;18.50;99.90;;;;;;4919091;29;20207;-80
2021/07/07 08:45:12;;;;;;;0.30;0.30;;;18.50;99.90;;;;;;4917932;29;20738;-80
2021/07/07 08:47:43;;;;;;;0.40;0.40;;;18.60;99.90;;;;;;4919156;29;20202;-79
2021/07/07 08:50:14;;;;;;;0.30;0.30;;;18.60;99.90;;;;;;4918308;29;20243;-80
2021/07/07 08:52:44;;;;;;;0.30;0.30;;;18.70;99.90;;;;;;4918696;29;20235;-79
2021/07/07 08:55:15;;;;;;;0.30;0.30;;;18.80;99.90;;;;;;4916834;29;20290;-80
2021/07/07 08:57:43;;;;;;;0.40;0.40;;;18.90;99.90;;;;;;4917039;29;20246;-80
2021/07/07 09:00:17;;;;;;;0.30;0.30;;;18.90;99.90;;;;;;4916912;29;20230;-79
2021/07/07 09:02:49;;;;;;;0.30;0.30;;;18.70;99.90;;;;;;4916736;29;20195;-79
2021/07/07 09:05:18;;;;;;;0.40;0.40;;;18.80;99.90;;;;;;4916461;29;20289;-79
2021/07/07 09:07:47;;;;;;;0.40;0.40;;;18.80;99.90;;;;;;4916546;29;20262;-80
2021/07/07 09:10:18;;;;;;;0.30;0.30;;;18.70;99.90;;;;;;4916564;29;20238;-80
2021/07/07 09:12:46;;;;;;;0.30;0.30;;;18.60;99.90;;;;;;4916777;29;20237;-79
2021/07/07 09:15:17;;;;;;;0.20;0.20;;;18.80;99.90;;;;;;4916976;29;20582;-80
2021/07/07 09:17:49;;;;;;;0.30;0.30;;;18.80;99.90;;;;;;4916609;29;20203;-79
2021/07/07 09:20:19;;;;;;;0.30;0.30;;;18.90;99.90;;;;;;4916320;29;20226;-79
2021/07/07 09:22:49;;;;;;;0.30;0.30;;;18.90;99.90;;;;;;4920861;29;20203;-79
2021/07/07 09:25:27;;;;;;;0.30;0.30;;;19.00;99.90;;;;;;4919674;29;20223;-79
2021/07/07 09:27:55;;;;;;;0.30;0.30;;;19.00;99.90;;;;;;4920395;29;20210;-79
2021/07/07 09:30:23;;;;;;;0.30;0.30;;;19.10;99.90;;;;;;4920006;29;20234;-79
2021/07/07 09:32:52;;;;;;;0.40;0.40;;;19.20;99.90;;;;;;4920708;29;20579;-79
2021/07/07 09:35:21;;;;;;;0.40;0.40;;;19.20;99.90;;;;;;4920636;29;20210;-79
2021/07/07 09:37:53;;;;;;;0.32;0.32;;;19.30;99.90;;;;;;4920485;29;20235;-79
2021/07/07 09:40:23;;;;;;;0.30;0.30;;;19.40;99.90;;;;;;4920521;29;20223;-79
2021/07/07 09:42:51;;;;;;;0.40;0.40;;;19.50;99.90;;;;;;4920421;29;20214;-79
2021/07/07 09:45:22;;;;;;;0.30;0.30;;;19.60;99.90;;;;;;4920483;29;20207;-78
2021/07/07 09:47:51;;;;;;;0.38;0.38;;;19.60;99.90;;;;;;4920640;29;20308;-79
2021/07/07 09:50:19;;;;;;;0.40;0.40;;;19.70;99.90;;;;;;4919855;29;20226;-79
2021/07/07 09:52:47;;;;;;;0.30;0.30;;;19.80;99.90;;;;;;4920351;29;20266;-79
2021/07/07 09:55:17;;;;;;;0.30;0.30;;;19.70;99.90;;;;;;4919912;29;20679;-78
2021/07/07 09:57:46;;;;;;;0.30;0.30;;;19.80;99.90;;;;;;4920076;29;20834;-79
2021/07/07 10:00:16;;;;;;;0.25;0.25;;;19.80;99.90;;;;;;4920371;29;20233;-78
2021/07/07 10:02:51;;;;;;;0.30;0.30;;;19.70;99.90;;;;;;4920152;29;20575;-78
2021/07/07 10:05:22;;;;;;;0.30;0.30;;;19.60;99.90;;;;;;4920470;29;20534;-79
2021/07/07 10:07:50;;;;;;;0.30;0.30;;;19.60;99.90;;;;;;4920355;29;20207;-79
2021/07/07 10:39:41;;;;;;;0.40;0.40;;;19.60;99.90;;;;;;4957843;28;20200;-78
2021/07/07 10:46:53;;;;;;;0.40;0.40;;;19.90;99.90;;;;;;4832748;28;20206;-78
2021/07/07 10:49:22;;;;;;;0.30;0.30;;;19.80;99.90;;;;;;4977923;28;20212;-78
2021/07/07 10:51:53;;;;;;;0.40;0.40;;;19.90;99.90;;;;;;4982439;28;20702;-78
2021/07/07 10:54:24;;;;;;;0.40;0.40;;;20.00;99.90;;;;;;4982228;28;20292;-78
2021/07/07 10:56:54;;;;;;;0.20;0.20;;;20.10;99.90;;;;;;4980023;28;20227;-78
2021/07/07 10:59:33;;;;;;;0.30;0.30;;;20.10;99.90;;;;;;4979233;28;20214;-78
2021/07/07 11:02:07;;;;;;;0.30;0.30;;;20.10;99.90;;;;;;4975563;28;20209;-78
2021/07/07 11:04:36;;;;;;;0.30;0.30;;;20.40;99.90;;;;;;4975759;28;20208;-78
2021/07/07 11:07:35;;;;;;;0.30;0.30;;;20.50;99.90;;;;;;4975009;28;20209;-78
2021/07/07 11:10:07;;;;;;;0.32;0.32;;;20.50;99.90;;;;;;4974147;28;20228;-78
2021/07/07 11:13:12;;;;;;;0.30;0.30;;;20.40;99.90;;;;;;4975245;28;20232;-78
2021/07/07 11:15:40;;;;;;;0.30;0.30;;;20.40;99.90;;;;;;4974776;28;20204;-77
2021/07/07 11:18:20;;;;;;;0.30;0.30;;;20.40;99.90;;;;;;4975043;28;20315;-77
2021/07/07 11:21:07;;;;;;;0.20;0.20;;;20.40;99.90;;;;;;4974143;28;20224;-77
2021/07/07 11:23:38;;;;;;;0.30;0.30;;;20.40;99.90;;;;;;4974704;28;20216;-76
2021/07/07 11:26:07;;;;;;;0.30;0.30;;;20.60;99.90;;;;;;4974444;28;20280;-77
2021/07/07 11:28:35;;;;;;;0.20;0.20;;;20.50;99.90;;;;;;4974434;28;20256;-76
2021/07/07 11:31:03;;;;;;;0.30;0.30;;;20.80;99.90;;;;;;4974167;28;20229;-76
2021/07/07 11:33:31;;;;;;;0.20;0.20;;;20.90;99.90;;;;;;4975210;28;20211;-77
2021/07/07 11:35:59;;;;;;;0.20;0.20;;;21.10;99.90;;;;;;4973870;28;20263;-76
2021/07/07 11:38:30;;;;;;;0.20;0.20;;;21.30;99.90;;;;;;4973991;28;20212;-76
2021/07/07 11:41:00;;;;;;;0.30;0.30;;;21.30;99.90;;;;;;4973542;28;20220;-76
2021/07/07 11:43:30;;;;;;;0.30;0.30;;;21.20;99.90;;;;;;4975145;28;20205;-76
2021/07/07 11:46:00;;;;;;;0.22;0.22;;;21.10;99.90;;;;;;4973709;28;20201;-76
2021/07/07 11:48:33;;;;;;;0.20;0.20;;;21.00;99.90;;;;;;4973868;28;20696;-79
2021/07/07 11:51:05;;;;;;;0.38;0.38;;;21.00;99.90;;;;;;4974080;28;20701;-78
2021/07/07 11:53:35;;;;;;;0.30;0.30;;;21.10;99.90;;;;;;4975215;28;20365;-78
2021/07/07 11:56:07;;;;;;;0.30;0.30;;;21.30;99.90;;;;;;4975366;28;20246;-78
2021/07/07 11:58:37;;;;;;;0.20;0.20;;;21.60;99.90;;;;;;4975254;28;20209;-79
2021/07/07 12:01:15;;;;;;;0.20;0.20;;;21.80;99.90;;;;;;4974750;28;20220;-78
2021/07/07 12:03:52;;;;;;;0.20;0.20;;;21.80;99.90;;;;;;4974809;28;20200;-78
2021/07/07 12:06:30;;;;;;;0.20;0.20;;;21.90;99.90;;;;;;4974520;28;20580;-78
2021/07/07 12:08:58;;;;;;;0.20;0.20;;;21.90;99.90;;;;;;4974561;28;20627;-78
2021/07/07 12:11:28;;;;;;;0.30;0.30;;;21.90;99.90;;;;;;4974054;28;20700;-78
2021/07/07 12:13:57;;;;;;;0.20;0.20;;;22.10;99.90;;;;;;4974245;28;20239;-78
2021/07/07 12:16:30;;;;;;;0.20;0.20;;;22.20;99.90;;;;;;4974164;28;20592;-78
2021/07/07 12:19:00;;;;;;;0.20;0.20;;;22.40;99.90;;;;;;4974268;28;20212;-78
2021/07/07 12:21:41;;;;;;;0.30;0.30;;;22.40;99.90;;;;;;4974372;28;20220;-78
2021/07/07 12:24:10;;;;;;;0.20;0.20;;;22.60;99.90;;;;;;4974126;28;20260;-78
2021/07/07 12:26:41;;;;;;;0.20;0.20;;;22.80;99.90;;;;;;4973735;28;20263;-78
2021/07/07 12:29:14;;;;;;;0.20;0.20;;;23.30;99.90;;;;;;4974003;28;20263;-78
2021/07/07 12:31:44;;;;;;;0.20;0.20;;;23.60;99.90;;;;;;4974377;28;20228;-78
2021/07/07 12:34:14;;;;;;;0.20;0.20;;;23.80;99.90;;;;;;4974396;28;20209;-78
2021/07/07 12:36:44;;;;;;;0.20;0.20;;;24.10;99.90;;;;;;4974151;28;20216;-78
2021/07/07 12:39:20;;;;;;;0.20;0.20;;;24.10;99.90;;;;;;4974306;28;20209;-78
2021/07/07 12:41:57;;;;;;;0.20;0.20;;;24.70;99.90;;;;;;4974283;28;20220;-78
2021/07/07 12:44:30;;;;;;;0.10;0.10;;;25.80;99.90;;;;;;4974498;28;20200;-78
2021/07/07 12:47:01;;;;;;;0.20;0.20;;;26.00;99.90;;;;;;4974326;28;20235;-78
2021/07/07 12:49:38;;;;;;;0.20;0.20;;;26.20;99.90;;;;;;4974205;28;20209;-78
2021/07/07 12:52:17;;;;;;;0.20;0.20;;;25.90;99.90;;;;;;4974099;28;20228;-78
2021/07/07 12:54:45;;;;;;;0.22;0.22;;;25.50;99.90;;;;;;4974500;28;20704;-78
2021/07/07 12:57:14;;;;;;;0.20;0.20;;;24.80;99.90;;;;;;4973372;28;20205;-78
2021/07/07 12:59:54;;;;;;;0.20;0.20;;;23.80;99.90;;;;;;4974399;28;20252;-78
2021/07/07 13:02:22;;;;;;;0.20;0.20;;;23.70;99.90;;;;;;4977909;28;20401;-78
2021/07/07 13:04:50;;;;;;;0.20;0.20;;;23.80;99.90;;;;;;4977881;28;20208;-78
2021/07/07 13:07:23;;;;;;;0.20;0.20;;;24.20;99.90;;;;;;4977116;28;20260;-77
2021/07/07 13:09:57;;;;;;;0.20;0.20;;;24.90;99.90;;;;;;4980247;28;20224;-77
2021/07/07 13:12:29;;;;;;;0.20;0.20;;;26.00;99.90;;;;;;4978436;28;20242;-76
2021/07/07 13:14:58;;;;;;;0.20;0.20;;;26.90;99.70;;;;;;4977345;28;20220;-76
2021/07/07 13:17:26;;;;;;;0.20;0.20;;;28.00;99.30;;;;;;4977012;28;20333;-76
2021/07/07 13:20:01;;;;;;;0.20;0.20;;;28.00;95.00;;;;;;4977624;28;20260;-76
2021/07/07 13:22:29;;;;;;;0.10;0.10;;;28.00;95.40;;;;;;4976548;28;20204;-76
2021/07/07 13:24:57;;;;;;;0.10;0.10;;;28.70;95.00;;;;;;4976547;28;20209;-75
2021/07/07 13:27:25;;;;;;;0.10;0.10;;;28.70;94.00;;;;;;4976479;28;20204;-76
2021/07/07 13:29:58;;;;;;;0.17;0.17;;;28.80;92.90;;;;;;4976820;28;20271;-76
2021/07/07 13:32:27;;;;;;;0.10;0.10;;;29.80;93.00;;;;;;4976426;28;20228;-76
2021/07/07 13:35:00;;;;;;;0.10;0.10;;;30.30;85.80;;;;;;4976227;28;20269;-76
2021/07/07 13:37:30;;;;;;;0.10;0.10;;;30.20;89.70;;;;;;4975904;28;20208;-75